GEC8802 EFHK-EDDF
Flight info
| Callsign | GEC8802 |
|---|---|
| Flight time | N/A |
| Altitude | 38000 |
| Route | NUNTO Y369 REKDO DCT KOSKA DCT BIKRU DCT HLZ DCT RIMET/N0482F310 T157 KOKEB/N0436F230 T157 KERAX KERAX5A |
| Aircraft | MD11/H-SDE1E2E3FGHIJ2J3J4J5M1RWXY/LB1D1 |
Departure
| Time | 2026-04-23 21:09 |
|---|---|
| Airport | Helsinki Vantaa Airport (EFHK) |
Arrival
| Time | N/A |
|---|---|
| Airport | Frankfurt Main Airport (EDDF) |
| Time | Latitude | Longitude | Altitude | Speed | Heading |
|---|---|---|---|---|---|
| 2026-04-23 20:42 | 60.31137 | 24.97593 | 169 ft | 0 kts | 242° |
| 2026-04-23 21:00 | 60.31146 | 24.97630 | 169 ft | 4 kts | 248° |
| 2026-04-23 21:00 | 60.31156 | 24.97674 | 169 ft | 4 kts | 220° |
| 2026-04-23 21:01 | 60.31173 | 24.97699 | 169 ft | 4 kts | 198° |
| 2026-04-23 21:01 | 60.31195 | 24.97705 | 169 ft | 4 kts | 161° |
| 2026-04-23 21:01 | 60.31210 | 24.97693 | 169 ft | 0 kts | 152° |
| 2026-04-23 21:04 | 60.31178 | 24.97728 | 169 ft | 10 kts | 150° |
| 2026-04-23 21:05 | 60.31158 | 24.97775 | 169 ft | 2 kts | 110° |
| 2026-04-23 21:05 | 60.31171 | 24.97883 | 169 ft | 17 kts | 72° |
| 2026-04-23 21:05 | 60.31173 | 24.97996 | 169 ft | 1 kts | 124° |
| 2026-04-23 21:05 | 60.31155 | 24.98032 | 169 ft | 4 kts | 137° |
| 2026-04-23 21:06 | 60.31126 | 24.98068 | 169 ft | 8 kts | 148° |
| 2026-04-23 21:06 | 60.31061 | 24.98137 | 169 ft | 13 kts | 156° |
| 2026-04-23 21:06 | 60.30972 | 24.98218 | 169 ft | 14 kts | 156° |
| 2026-04-23 21:06 | 60.30882 | 24.98294 | 168 ft | 14 kts | 158° |
| 2026-04-23 21:07 | 60.30797 | 24.98364 | 169 ft | 13 kts | 158° |
| 2026-04-23 21:07 | 60.30717 | 24.98431 | 169 ft | 12 kts | 158° |
| 2026-04-23 21:07 | 60.30658 | 24.98519 | 169 ft | 8 kts | 121° |
| 2026-04-23 21:07 | 60.30660 | 24.98596 | 168 ft | 7 kts | 69° |
| 2026-04-23 21:08 | 60.30707 | 24.98741 | 166 ft | 16 kts | 38° |
| 2026-04-23 21:08 | 60.30767 | 24.98783 | 165 ft | 1 kts | 346° |
| 2026-04-23 21:08 | 60.30776 | 24.98774 | 165 ft | 3 kts | 333° |
| 2026-04-23 21:08 | 60.31035 | 24.98507 | 163 ft | 93 kts | 331° |
| 2026-04-23 21:09 | 60.31906 | 24.97602 | 165 ft | 183 kts | 333° |
| 2026-04-23 21:09 | 60.33036 | 24.96458 | 1234 ft | 176 kts | 333° |
| 2026-04-23 21:09 | 60.34111 | 24.95363 | 2606 ft | 172 kts | 333° |
| 2026-04-23 21:09 | 60.35200 | 24.94247 | 3719 ft | 186 kts | 333° |
| 2026-04-23 21:10 | 60.36344 | 24.93020 | 4821 ft | 185 kts | 325° |
| 2026-04-23 21:10 | 60.37089 | 24.90878 | 5900 ft | 197 kts | 289° |
| 2026-04-23 21:10 | 60.37021 | 24.88021 | 6841 ft | 220 kts | 256° |
| 2026-04-23 21:10 | 60.36179 | 24.85293 | 7699 ft | 232 kts | 237° |
| 2026-04-23 21:11 | 60.35141 | 24.82728 | 8492 ft | 243 kts | 237° |
| 2026-04-23 21:11 | 60.34043 | 24.79985 | 9098 ft | 253 kts | 238° |
| 2026-04-23 21:11 | 60.32938 | 24.77229 | 9890 ft | 254 kts | 238° |
| 2026-04-23 21:11 | 60.31859 | 24.74381 | 10374 ft | 262 kts | 244° |
| 2026-04-23 21:12 | 60.30861 | 24.71164 | 10519 ft | 281 kts | 246° |
| 2026-04-23 21:12 | 60.29798 | 24.67707 | 10696 ft | 296 kts | 246° |
| 2026-04-23 21:12 | 60.28801 | 24.64000 | 11012 ft | 303 kts | 250° |
| 2026-04-23 21:12 | 60.27838 | 24.60150 | 11141 ft | 321 kts | 250° |
| 2026-04-23 21:13 | 60.26784 | 24.55963 | 11305 ft | 350 kts | 249° |
| 2026-04-23 21:13 | 60.25617 | 24.51459 | 11764 ft | 367 kts | 248° |
| 2026-04-23 21:13 | 60.24400 | 24.46913 | 12566 ft | 374 kts | 248° |
| 2026-04-23 21:13 | 60.23130 | 24.42247 | 13417 ft | 380 kts | 248° |
| 2026-04-23 21:14 | 60.21856 | 24.37603 | 14146 ft | 385 kts | 249° |
| 2026-04-23 21:14 | 60.20545 | 24.32848 | 14837 ft | 390 kts | 249° |
| 2026-04-23 21:14 | 60.19223 | 24.28066 | 15523 ft | 395 kts | 249° |
| 2026-04-23 21:14 | 60.17889 | 24.23252 | 16178 ft | 399 kts | 249° |
| 2026-04-23 21:15 | 60.16527 | 24.18343 | 16837 ft | 404 kts | 250° |
| 2026-04-23 21:15 | 60.15146 | 24.13377 | 17486 ft | 408 kts | 250° |
| 2026-04-23 21:15 | 60.13748 | 24.08356 | 18107 ft | 413 kts | 250° |
| 2026-04-23 21:15 | 60.12335 | 24.03298 | 18609 ft | 417 kts | 250° |
| 2026-04-23 21:16 | 60.10904 | 23.98184 | 19117 ft | 422 kts | 250° |
| 2026-04-23 21:16 | 60.09475 | 23.93092 | 19564 ft | 426 kts | 251° |
| 2026-04-23 21:16 | 60.08033 | 23.87882 | 20006 ft | 429 kts | 251° |
| 2026-04-23 21:16 | 60.06611 | 23.82596 | 20443 ft | 432 kts | 252° |
| 2026-04-23 21:17 | 60.05201 | 23.77258 | 20923 ft | 434 kts | 252° |
| 2026-04-23 21:17 | 60.03815 | 23.71974 | 21404 ft | 438 kts | 253° |
| 2026-04-23 21:17 | 60.02396 | 23.66553 | 21900 ft | 441 kts | 253° |
| 2026-04-23 21:17 | 60.00963 | 23.61087 | 22379 ft | 445 kts | 253° |
| 2026-04-23 21:18 | 59.99519 | 23.55596 | 22880 ft | 449 kts | 253° |
| 2026-04-23 21:18 | 59.98055 | 23.50042 | 23373 ft | 453 kts | 253° |
| 2026-04-23 21:18 | 59.96579 | 23.44466 | 23817 ft | 456 kts | 253° |
| 2026-04-23 21:18 | 59.95108 | 23.38925 | 24265 ft | 459 kts | 253° |
| 2026-04-23 21:19 | 59.93602 | 23.33271 | 24728 ft | 462 kts | 253° |
| 2026-04-23 21:19 | 59.92087 | 23.27594 | 25198 ft | 465 kts | 253° |
| 2026-04-23 21:19 | 59.90556 | 23.21873 | 25672 ft | 468 kts | 253° |
| 2026-04-23 21:19 | 59.89017 | 23.16132 | 26121 ft | 471 kts | 253° |
| 2026-04-23 21:20 | 59.87465 | 23.10355 | 26523 ft | 475 kts | 253° |
| 2026-04-23 21:20 | 59.85914 | 23.04600 | 26954 ft | 478 kts | 253° |
| 2026-04-23 21:20 | 59.84863 | 23.00709 | 27246 ft | 480 kts | 253° |
| 2026-04-23 21:20 | 59.82728 | 22.92827 | 27811 ft | 483 kts | 252° |
| 2026-04-23 21:21 | 59.81145 | 22.87009 | 28307 ft | 484 kts | 252° |
| 2026-04-23 21:21 | 59.79536 | 22.81107 | 28743 ft | 487 kts | 252° |
| 2026-04-23 21:21 | 59.78459 | 22.77168 | 29033 ft | 490 kts | 252° |
| 2026-04-23 21:21 | 59.76809 | 22.71213 | 29451 ft | 493 kts | 252° |
| 2026-04-23 21:22 | 59.75150 | 22.65267 | 29841 ft | 496 kts | 252° |
| 2026-04-23 21:22 | 59.73463 | 22.59217 | 30170 ft | 498 kts | 252° |
| 2026-04-23 21:22 | 59.71788 | 22.53194 | 30484 ft | 500 kts | 252° |
| 2026-04-23 21:22 | 59.70110 | 22.47152 | 30860 ft | 500 kts | 252° |
| 2026-04-23 21:23 | 59.68437 | 22.41133 | 31266 ft | 499 kts | 252° |
| 2026-04-23 21:23 | 59.66762 | 22.35118 | 31687 ft | 497 kts | 252° |
| 2026-04-23 21:23 | 59.65113 | 22.29204 | 32090 ft | 496 kts | 252° |
| 2026-04-23 21:23 | 59.63445 | 22.23232 | 32485 ft | 495 kts | 252° |
| 2026-04-23 21:24 | 59.61778 | 22.17280 | 32880 ft | 494 kts | 252° |
| 2026-04-23 21:24 | 59.60113 | 22.11351 | 33248 ft | 493 kts | 251° |
| 2026-04-23 21:24 | 59.58449 | 22.05440 | 33624 ft | 492 kts | 251° |
| 2026-04-23 21:24 | 59.56775 | 21.99509 | 33974 ft | 491 kts | 251° |
| 2026-04-23 21:25 | 59.55134 | 21.93709 | 34237 ft | 489 kts | 251° |
| 2026-04-23 21:25 | 59.53471 | 21.87850 | 34522 ft | 488 kts | 251° |
| 2026-04-23 21:25 | 59.51799 | 21.81971 | 34816 ft | 488 kts | 250° |
| 2026-04-23 21:25 | 59.50149 | 21.76180 | 35057 ft | 488 kts | 250° |
| 2026-04-23 21:26 | 59.48496 | 21.70395 | 35319 ft | 488 kts | 250° |
| 2026-04-23 21:26 | 59.46813 | 21.64523 | 35575 ft | 487 kts | 250° |
| 2026-04-23 21:26 | 59.45163 | 21.58783 | 35828 ft | 487 kts | 250° |
| 2026-04-23 21:26 | 59.43459 | 21.52937 | 36084 ft | 488 kts | 249° |
| 2026-04-23 21:27 | 59.41775 | 21.47195 | 36335 ft | 487 kts | 249° |
| 2026-04-23 21:27 | 59.40089 | 21.41441 | 36573 ft | 487 kts | 249° |
| 2026-04-23 21:27 | 59.38410 | 21.35688 | 36820 ft | 487 kts | 249° |
| 2026-04-23 21:27 | 59.36721 | 21.29889 | 37035 ft | 487 kts | 249° |
| 2026-04-23 21:28 | 59.35049 | 21.24146 | 37264 ft | 486 kts | 249° |
| 2026-04-23 21:28 | 59.33366 | 21.18369 | 37487 ft | 486 kts | 249° |
| 2026-04-23 21:28 | 59.31695 | 21.12647 | 37664 ft | 486 kts | 249° |
| 2026-04-23 21:28 | 59.30021 | 21.06931 | 37882 ft | 487 kts | 248° |
| 2026-04-23 21:29 | 59.26642 | 20.95431 | 37925 ft | 489 kts | 248° |
| 2026-04-23 21:29 | 59.23250 | 20.83958 | 37934 ft | 489 kts | 248° |
| 2026-04-23 21:30 | 59.19774 | 20.72512 | 37938 ft | 494 kts | 243° |
| 2026-04-23 21:30 | 59.15082 | 20.62386 | 37945 ft | 508 kts | 229° |
| 2026-04-23 21:31 | 59.09749 | 20.53330 | 37933 ft | 511 kts | 227° |
| 2026-04-23 21:31 | 59.04388 | 20.44194 | 37944 ft | 510 kts | 228° |
| 2026-04-23 21:32 | 58.99147 | 20.34988 | 37952 ft | 509 kts | 229° |
| 2026-04-23 21:32 | 58.93900 | 20.25702 | 37950 ft | 509 kts | 229° |
| 2026-04-23 21:33 | 58.88674 | 20.16493 | 37955 ft | 510 kts | 229° |
| 2026-04-23 21:33 | 58.83447 | 20.07339 | 37950 ft | 509 kts | 229° |
| 2026-04-23 21:34 | 58.78183 | 19.98163 | 37973 ft | 509 kts | 229° |
| 2026-04-23 21:34 | 58.72905 | 19.89004 | 37931 ft | 509 kts | 228° |
| 2026-04-23 21:35 | 58.67653 | 19.79930 | 37968 ft | 507 kts | 228° |
| 2026-04-23 21:35 | 58.62414 | 19.70913 | 37966 ft | 506 kts | 228° |
| 2026-04-23 21:36 | 58.54538 | 19.57495 | 37982 ft | 506 kts | 227° |
| 2026-04-23 21:37 | 58.49237 | 19.48571 | 37980 ft | 506 kts | 227° |
| 2026-04-23 21:37 | 58.43966 | 19.39665 | 37981 ft | 506 kts | 228° |
| 2026-04-23 21:38 | 58.38714 | 19.30795 | 37979 ft | 505 kts | 227° |
| 2026-04-23 21:38 | 58.33417 | 19.21883 | 37985 ft | 505 kts | 227° |
| 2026-04-23 21:39 | 58.28168 | 19.13089 | 37988 ft | 505 kts | 227° |
| 2026-04-23 21:39 | 58.22886 | 19.04280 | 37989 ft | 505 kts | 227° |
| 2026-04-23 21:40 | 58.17614 | 18.95523 | 37961 ft | 505 kts | 227° |
| 2026-04-23 21:40 | 58.12318 | 18.86763 | 37992 ft | 503 kts | 227° |
| 2026-04-23 21:41 | 58.07066 | 18.78111 | 37995 ft | 503 kts | 227° |
| 2026-04-23 21:41 | 58.01781 | 18.69440 | 37994 ft | 503 kts | 227° |
| 2026-04-23 21:42 | 57.96480 | 18.60779 | 37991 ft | 501 kts | 227° |
| 2026-04-23 21:42 | 57.91208 | 18.52283 | 37985 ft | 501 kts | 227° |
| 2026-04-23 21:43 | 57.85930 | 18.43811 | 37980 ft | 500 kts | 227° |
| 2026-04-23 21:43 | 57.80634 | 18.35283 | 37972 ft | 500 kts | 227° |
| 2026-04-23 21:44 | 57.75344 | 18.26774 | 37970 ft | 500 kts | 227° |
| 2026-04-23 21:44 | 57.70042 | 18.18279 | 37937 ft | 500 kts | 227° |
| 2026-04-23 21:45 | 57.64784 | 18.09891 | 38003 ft | 501 kts | 226° |
| 2026-04-23 21:45 | 57.59453 | 18.01422 | 38004 ft | 501 kts | 226° |
| 2026-04-23 21:46 | 57.54163 | 17.93051 | 38006 ft | 501 kts | 226° |
| 2026-04-23 21:46 | 57.48843 | 17.84666 | 38007 ft | 501 kts | 226° |
| 2026-04-23 21:47 | 57.43513 | 17.76298 | 38013 ft | 501 kts | 226° |
| 2026-04-23 21:47 | 57.38203 | 17.67996 | 38012 ft | 501 kts | 226° |
| 2026-04-23 21:48 | 57.32845 | 17.59650 | 38018 ft | 501 kts | 226° |
| 2026-04-23 21:48 | 57.27492 | 17.51428 | 38018 ft | 501 kts | 226° |
| 2026-04-23 21:49 | 57.22152 | 17.43251 | 38018 ft | 501 kts | 225° |
| 2026-04-23 21:49 | 57.16771 | 17.34987 | 38023 ft | 501 kts | 226° |
| 2026-04-23 21:50 | 57.11427 | 17.26790 | 38044 ft | 501 kts | 225° |
| 2026-04-23 21:50 | 57.06080 | 17.18620 | 38029 ft | 501 kts | 225° |
| 2026-04-23 21:51 | 57.00694 | 17.10425 | 38028 ft | 501 kts | 225° |
| 2026-04-23 21:51 | 56.95331 | 17.02299 | 38031 ft | 500 kts | 225° |
| 2026-04-23 21:52 | 56.89967 | 16.94200 | 38037 ft | 500 kts | 225° |
| 2026-04-23 21:52 | 56.84614 | 16.86150 | 38041 ft | 500 kts | 225° |
| 2026-04-23 21:53 | 56.79230 | 16.78083 | 38014 ft | 500 kts | 225° |
| 2026-04-23 21:53 | 56.73878 | 16.70098 | 38029 ft | 500 kts | 225° |
| 2026-04-23 21:54 | 56.68482 | 16.62075 | 38031 ft | 500 kts | 225° |
| 2026-04-23 21:54 | 56.63047 | 16.54108 | 38027 ft | 500 kts | 225° |
| 2026-04-23 21:55 | 56.57630 | 16.46183 | 38024 ft | 500 kts | 225° |
| 2026-04-23 21:55 | 56.52245 | 16.38285 | 38014 ft | 498 kts | 225° |
| 2026-04-23 21:56 | 56.46878 | 16.30425 | 38036 ft | 497 kts | 225° |
| 2026-04-23 21:56 | 56.41482 | 16.22550 | 38046 ft | 497 kts | 225° |
| 2026-04-23 21:57 | 56.36086 | 16.14706 | 38051 ft | 497 kts | 225° |
| 2026-04-23 21:57 | 56.30718 | 16.06935 | 38052 ft | 496 kts | 225° |
| 2026-04-23 21:58 | 56.25328 | 15.99163 | 38056 ft | 495 kts | 225° |
| 2026-04-23 21:58 | 56.19983 | 15.91480 | 38059 ft | 495 kts | 225° |
| 2026-04-23 21:59 | 56.14591 | 15.83759 | 38062 ft | 495 kts | 224° |
| 2026-04-23 21:59 | 56.09185 | 15.76047 | 38044 ft | 495 kts | 224° |
| 2026-04-23 22:00 | 56.01131 | 15.64639 | 38059 ft | 495 kts | 224° |
| 2026-04-23 22:00 | 55.95687 | 15.57032 | 38062 ft | 495 kts | 224° |
| 2026-04-23 22:01 | 55.90271 | 15.49441 | 38068 ft | 495 kts | 224° |
| 2026-04-23 22:01 | 55.84888 | 15.41890 | 38061 ft | 496 kts | 224° |
| 2026-04-23 22:02 | 55.79459 | 15.34295 | 38064 ft | 496 kts | 224° |
| 2026-04-23 22:02 | 55.74062 | 15.26782 | 38068 ft | 494 kts | 224° |
| 2026-04-23 22:03 | 55.68629 | 15.19241 | 38072 ft | 494 kts | 224° |
| 2026-04-23 22:03 | 55.63238 | 15.11785 | 38059 ft | 494 kts | 224° |
| 2026-04-23 22:04 | 55.57806 | 15.04299 | 38080 ft | 494 kts | 224° |
| 2026-04-23 22:04 | 55.52389 | 14.96864 | 38080 ft | 494 kts | 224° |
| 2026-04-23 22:05 | 55.47003 | 14.89497 | 38083 ft | 494 kts | 223° |
| 2026-04-23 22:05 | 55.41566 | 14.82085 | 38082 ft | 494 kts | 223° |
| 2026-04-23 22:06 | 55.36100 | 14.74676 | 38076 ft | 496 kts | 223° |
| 2026-04-23 22:06 | 55.30616 | 14.67337 | 38069 ft | 497 kts | 223° |
| 2026-04-23 22:07 | 55.25120 | 14.59967 | 38067 ft | 497 kts | 223° |
| 2026-04-23 22:07 | 55.19647 | 14.52619 | 38062 ft | 497 kts | 223° |
| 2026-04-23 22:08 | 55.15076 | 14.46494 | 38062 ft | 497 kts | 223° |
| 2026-04-23 22:08 | 55.08682 | 14.37958 | 38066 ft | 497 kts | 223° |
| 2026-04-23 22:09 | 55.04106 | 14.31878 | 38074 ft | 491 kts | 223° |
| 2026-04-23 22:09 | 54.98659 | 14.24657 | 38086 ft | 490 kts | 223° |
| 2026-04-23 22:10 | 54.93233 | 14.17487 | 38097 ft | 491 kts | 223° |
| 2026-04-23 22:10 | 54.87812 | 14.10349 | 38102 ft | 492 kts | 223° |
| 2026-04-23 22:11 | 54.82352 | 14.03188 | 38100 ft | 492 kts | 222° |
| 2026-04-23 22:11 | 54.76865 | 13.96016 | 38113 ft | 492 kts | 222° |
| 2026-04-23 22:12 | 54.71514 | 13.88825 | 38102 ft | 490 kts | 224° |
| 2026-04-23 22:12 | 54.66210 | 13.81347 | 38113 ft | 490 kts | 225° |
| 2026-04-23 22:13 | 54.60972 | 13.73906 | 38113 ft | 490 kts | 225° |
| 2026-04-23 22:13 | 54.55670 | 13.66420 | 38116 ft | 490 kts | 225° |